Time;durP1;ratioP1;P1;durP2;ratioP2;P2;SDS_P1;SDS_P2;PMS_P1;PMS_P2;Temp;Humidity;BMP_temperature;BMP_pressure;BME280_temperature;BME280_humidity;BME280_pressure;Samples;Min_cycle;Max_cycle;Signal;HPM_P1;HPM_P2
2020/12/22 00:00:09;;;;;;;1.63;1.20;;;9.00;99.90;;;9.60;100.00;97940.84;4997251;28;20460;-80
2020/12/22 00:02:42;;;;;;;2.13;1.00;;;9.00;99.90;;;9.59;100.00;97932.22;5001078;28;20459;-80
2020/12/22 00:05:12;;;;;;;1.50;1.07;;;9.00;99.90;;;9.61;100.00;97922.38;5006993;28;20455;-80
2020/12/22 00:07:40;;;;;;;1.30;1.20;;;9.00;99.90;;;9.64;100.00;97920.41;4997153;28;20457;-80
2020/12/22 00:10:11;;;;;;;2.10;1.20;;;9.10;99.90;;;9.65;100.00;97924.66;4994296;28;20853;-80
2020/12/22 00:12:39;;;;;;;1.10;1.00;;;9.10;99.90;;;9.65;100.00;97912.38;4997233;28;20858;-81
2020/12/22 00:15:08;;;;;;;1.20;1.10;;;9.10;99.90;;;9.67;100.00;97922.66;4996075;28;20467;-81
2020/12/22 00:17:38;;;;;;;1.10;1.00;;;9.10;99.90;;;9.70;100.00;97932.72;4997740;28;20456;-80
2020/12/22 00:20:06;;;;;;;0.90;0.80;;;9.00;99.90;;;9.69;100.00;97916.25;4997410;28;20468;-81
2020/12/22 00:22:35;;;;;;;1.17;1.00;;;9.00;99.90;;;9.70;100.00;97917.06;4994138;28;20513;-81
2020/12/22 00:25:03;;;;;;;2.93;1.40;;;9.10;99.90;;;9.72;100.00;97912.47;4995092;28;20474;-81
2020/12/22 00:27:33;;;;;;;1.07;0.97;;;9.10;99.90;;;9.72;100.00;97925.53;4992423;28;20540;-81
2020/12/22 00:30:01;;;;;;;1.53;1.20;;;9.20;99.90;;;9.72;100.00;97933.38;4993210;28;21264;-81
2020/12/22 00:32:32;;;;;;;1.33;0.90;;;9.20;99.90;;;9.77;100.00;97933.63;4995846;28;20486;-81
2020/12/22 00:35:00;;;;;;;1.10;1.00;;;9.30;99.90;;;9.79;100.00;97921.19;4994832;28;20865;-81
2020/12/22 00:37:27;;;;;;;1.50;1.20;;;9.30;99.90;;;9.80;100.00;97913.16;4994603;28;20491;-80
2020/12/22 00:39:56;;;;;;;1.83;1.20;;;9.30;99.90;;;9.82;100.00;97916.38;4995212;28;20523;-81
2020/12/22 00:42:23;;;;;;;1.20;1.10;;;9.30;99.90;;;9.82;100.00;97913.00;4994915;28;20522;-80
2020/12/22 00:44:51;;;;;;;1.17;1.07;;;9.30;99.90;;;9.84;100.00;97913.59;4996967;28;20501;-80
2020/12/22 00:47:18;;;;;;;1.30;1.20;;;9.30;99.90;;;9.85;100.00;97910.00;4995161;28;20458;-80
2020/12/22 00:49:46;;;;;;;1.90;1.20;;;9.40;99.90;;;9.88;100.00;97909.63;4995692;28;20471;-80
2020/12/22 00:52:13;;;;;;;2.73;1.67;;;9.40;99.90;;;9.89;100.00;97914.66;4995861;28;20590;-81
2020/12/22 00:54:41;;;;;;;6.00;1.33;;;9.40;99.90;;;9.91;100.00;97917.91;4996457;28;20459;-80
2020/12/22 00:57:09;;;;;;;3.43;1.40;;;9.40;99.90;;;9.95;100.00;97920.94;4995701;28;20987;-80
2020/12/22 00:59:37;;;;;;;5.67;1.50;;;9.50;99.90;;;9.92;100.00;97932.59;4995433;28;20837;-80
2020/12/22 01:02:05;;;;;;;4.03;1.20;;;9.40;99.90;;;9.98;100.00;97931.84;4996550;28;20466;-80
2020/12/22 01:04:33;;;;;;;1.30;1.10;;;9.50;99.90;;;10.00;100.00;97924.63;4993730;28;20489;-80
2020/12/22 01:07:02;;;;;;;3.30;1.30;;;9.50;99.90;;;10.04;100.00;97922.44;4993847;28;20468;-80
2020/12/22 01:09:30;;;;;;;2.70;1.07;;;9.50;99.90;;;10.06;100.00;97928.31;4995825;28;20464;-80
2020/12/22 01:11:58;;;;;;;6.00;1.00;;;9.50;99.90;;;10.09;100.00;97933.16;4993805;28;20466;-80
2020/12/22 01:14:26;;;;;;;1.30;1.20;;;9.60;99.90;;;10.11;100.00;97938.97;4994877;28;20471;-80
2020/12/22 01:16:55;;;;;;;0.80;0.80;;;9.60;99.90;;;10.20;100.00;97924.84;4995400;28;20470;-81
2020/12/22 01:19:22;;;;;;;0.80;0.77;;;9.80;99.90;;;10.25;100.00;97922.47;4995518;28;20470;-80
2020/12/22 01:21:53;;;;;;;1.00;0.90;;;9.90;99.90;;;10.31;100.00;97915.69;4995356;28;20474;-80
2020/12/22 01:24:20;;;;;;;1.00;0.90;;;9.90;99.90;;;10.34;100.00;97926.59;4995410;28;21377;-80
2020/12/22 01:26:49;;;;;;;0.80;0.80;;;9.90;99.90;;;10.38;100.00;97927.81;4995628;28;20471;-80
2020/12/22 01:29:18;;;;;;;0.93;0.83;;;9.90;99.90;;;10.41;100.00;97930.03;4995958;28;20486;-80
2020/12/22 01:31:47;;;;;;;1.13;0.90;;;10.00;99.90;;;10.45;100.00;97938.31;4993833;28;20467;-80
2020/12/22 01:34:16;;;;;;;1.47;0.90;;;10.00;99.90;;;10.48;100.00;97937.97;4994809;28;21168;-80
2020/12/22 01:36:43;;;;;;;4.43;0.90;;;10.00;99.90;;;10.50;100.00;97935.94;4999292;28;20808;-80
2020/12/22 01:39:11;;;;;;;6.33;0.93;;;10.00;99.90;;;10.54;100.00;97937.19;5000571;28;20475;-80
2020/12/22 01:41:39;;;;;;;1.00;0.80;;;10.10;99.90;;;10.52;100.00;97929.53;4998313;28;20537;-80
2020/12/22 01:44:09;;;;;;;0.80;0.70;;;10.10;99.90;;;10.56;100.00;97935.19;4999201;28;20451;-80
2020/12/22 01:46:39;;;;;;;2.50;0.80;;;10.10;99.90;;;10.57;100.00;97935.00;4999539;28;20466;-80
2020/12/22 01:49:16;;;;;;;0.80;0.80;;;10.10;99.90;;;10.60;100.00;97926.78;4997254;28;20476;-81
2020/12/22 01:51:45;;;;;;;3.33;0.80;;;10.20;99.90;;;10.62;100.00;97931.03;4997852;28;20840;-80
2020/12/22 01:54:15;;;;;;;2.30;0.67;;;10.20;99.90;;;10.63;100.00;97941.28;4998317;28;20503;-80
2020/12/22 01:56:44;;;;;;;0.80;0.70;;;10.20;99.90;;;10.67;100.00;97941.69;4998947;28;20833;-80
2020/12/22 01:59:13;;;;;;;0.70;0.60;;;10.30;99.90;;;10.69;100.00;97927.44;4999443;28;20463;-80
2020/12/22 02:01:41;;;;;;;0.90;0.70;;;10.30;99.90;;;10.71;100.00;97929.88;4999078;28;20462;-80
2020/12/22 02:04:12;;;;;;;1.57;0.70;;;10.30;99.90;;;10.72;100.00;97923.66;4998504;28;20517;-80
2020/12/22 02:06:39;;;;;;;0.70;0.60;;;10.20;99.90;;;10.75;100.00;97918.03;4999272;28;21271;-80
2020/12/22 02:09:09;;;;;;;0.90;0.70;;;10.30;99.90;;;10.76;100.00;97909.97;5000279;28;20493;-80
2020/12/22 02:11:39;;;;;;;2.03;0.97;;;10.30;99.90;;;10.77;100.00;97903.75;4997284;28;20483;-81
2020/12/22 02:14:10;;;;;;;0.90;0.80;;;10.40;99.90;;;10.80;100.00;97911.22;4996957;28;20502;-80
2020/12/22 02:16:39;;;;;;;1.33;0.80;;;10.40;99.90;;;10.84;100.00;97927.34;4998634;28;20459;-80
2020/12/22 02:19:23;;;;;;;3.53;0.80;;;10.40;99.90;;;10.79;100.00;97925.31;4998000;28;20491;-80
2020/12/22 02:21:51;;;;;;;0.80;0.70;;;10.30;99.90;;;10.82;100.00;97926.72;4999600;28;20465;-80
2020/12/22 02:24:19;;;;;;;2.00;1.13;;;10.40;99.90;;;10.84;100.00;97915.06;4999638;28;20466;-80
2020/12/22 02:26:47;;;;;;;1.03;0.70;;;10.40;99.90;;;10.85;100.00;97913.28;4999823;28;20462;-80
2020/12/22 02:29:15;;;;;;;0.90;0.70;;;10.30;99.90;;;10.87;100.00;97914.69;4998433;28;20491;-80
2020/12/22 02:31:43;;;;;;;0.80;0.70;;;10.40;99.90;;;10.90;100.00;97922.16;4995915;28;20952;-80
2020/12/22 02:34:11;;;;;;;0.73;0.67;;;10.40;99.90;;;10.90;100.00;97924.75;4998809;28;20497;-80
2020/12/22 02:36:38;;;;;;;0.80;0.70;;;10.50;99.90;;;10.89;100.00;97915.31;4997919;28;20464;-80
2020/12/22 02:39:07;;;;;;;6.30;0.80;;;10.50;99.90;;;10.94;100.00;97927.81;4995788;28;20460;-81
2020/12/22 02:41:36;;;;;;;0.90;0.70;;;10.40;99.90;;;10.99;100.00;97915.78;4997154;28;20964;-80
2020/12/22 02:44:03;;;;;;;2.00;0.90;;;10.50;99.90;;;11.00;100.00;97930.44;4997874;28;20460;-80
2020/12/22 02:46:32;;;;;;;1.03;0.70;;;10.60;99.90;;;11.04;100.00;97923.03;4994753;28;20851;-80
2020/12/22 02:49:01;;;;;;;1.37;0.73;;;10.60;99.90;;;11.01;100.00;97923.41;4998369;28;20435;-81
2020/12/22 02:51:30;;;;;;;0.80;0.70;;;10.50;99.90;;;11.03;100.00;97922.25;4997374;28;20467;-80
2020/12/22 02:53:58;;;;;;;2.00;0.70;;;10.60;99.90;;;11.07;100.00;97917.44;4997692;28;20891;-81
2020/12/22 02:56:26;;;;;;;0.70;0.60;;;10.60;99.90;;;11.08;100.00;97913.78;4996260;28;20890;-80
2020/12/22 02:58:54;;;;;;;4.27;0.77;;;10.70;99.90;;;11.09;100.00;97911.00;4995865;28;20466;-80
2020/12/22 03:01:21;;;;;;;1.20;0.80;;;10.70;99.90;;;11.13;100.00;97919.28;4998759;28;20995;-81
2020/12/22 03:03:49;;;;;;;0.90;0.80;;;10.70;99.90;;;11.15;100.00;97904.16;4995764;28;20965;-80
2020/12/22 03:06:16;;;;;;;0.77;0.70;;;10.80;99.90;;;11.19;100.00;97910.63;4995415;28;20905;-80
2020/12/22 03:08:44;;;;;;;0.80;0.70;;;10.80;99.90;;;11.20;100.00;97907.03;4996076;28;20499;-80
2020/12/22 03:11:11;;;;;;;1.37;0.80;;;10.80;99.90;;;11.23;100.00;97914.50;4996030;28;20482;-80
2020/12/22 03:13:40;;;;;;;2.70;0.80;;;10.80;99.90;;;11.27;100.00;97913.09;4995792;28;20506;-80
2020/12/22 03:16:07;;;;;;;2.13;0.80;;;10.90;99.90;;;11.25;100.00;97914.28;4996346;28;20968;-81
2020/12/22 03:18:35;;;;;;;0.80;0.80;;;10.90;99.90;;;11.25;100.00;97915.09;4996878;28;20471;-80
2020/12/22 03:21:03;;;;;;;0.80;0.70;;;10.80;99.90;;;11.25;100.00;97915.09;4994490;28;20491;-80
2020/12/22 03:23:30;;;;;;;1.00;0.70;;;10.80;99.90;;;11.28;100.00;97916.53;4996154;28;20552;-80
2020/12/22 03:25:58;;;;;;;0.80;0.60;;;10.90;99.90;;;11.29;100.00;97908.47;4995923;28;20471;-80
2020/12/22 03:28:25;;;;;;;2.10;0.70;;;10.90;99.90;;;11.30;100.00;97906.66;4971847;28;689075;-80
2020/12/22 03:30:54;;;;;;;1.10;0.70;;;10.80;99.90;;;11.27;100.00;97923.56;4996779;28;20196;-80
2020/12/22 03:33:21;;;;;;;0.80;0.70;;;10.80;99.90;;;11.31;100.00;97909.09;4996221;28;20494;-80
2020/12/22 03:35:49;;;;;;;2.17;0.67;;;10.90;99.90;;;11.30;100.00;97904.84;4997904;28;20524;-81
2020/12/22 03:38:16;;;;;;;3.00;0.70;;;10.90;99.90;;;11.32;100.00;97910.69;4996100;28;20460;-80
2020/12/22 03:40:45;;;;;;;1.57;0.70;;;10.90;99.90;;;11.32;100.00;97912.50;4997718;28;20479;-81
2020/12/22 03:43:12;;;;;;;0.70;0.70;;;10.90;99.90;;;11.31;100.00;97906.47;4996297;28;20474;-81
2020/12/22 03:45:43;;;;;;;1.73;0.70;;;10.90;99.90;;;11.35;100.00;97904.28;4998128;28;21546;-80
2020/12/22 03:48:11;;;;;;;0.70;0.60;;;10.90;99.90;;;11.34;100.00;97893.00;4997201;28;20956;-81
2020/12/22 03:50:38;;;;;;;0.80;0.70;;;10.90;99.90;;;11.35;100.00;97894.59;4996452;28;20915;-80
2020/12/22 03:53:06;;;;;;;0.80;0.60;;;10.90;99.90;;;11.36;100.00;97885.75;4996394;28;20491;-81
2020/12/22 03:55:34;;;;;;;0.70;0.70;;;11.00;99.90;;;11.37;100.00;97891.78;4997161;28;20973;-80
2020/12/22 03:58:01;;;;;;;0.70;0.60;;;11.00;99.90;;;11.37;100.00;97897.84;4995487;28;20478;-80
2020/12/22 04:00:28;;;;;;;0.80;0.70;;;11.00;99.90;;;11.38;100.00;97893.41;4995030;28;20469;-80
2020/12/22 04:02:56;;;;;;;1.10;0.90;;;11.00;99.90;;;11.42;100.00;97892.81;4997353;28;20478;-80
2020/12/22 04:05:24;;;;;;;0.70;0.70;;;11.00;99.90;;;11.44;100.00;97887.38;4994548;28;20528;-80
2020/12/22 04:07:52;;;;;;;1.00;0.70;;;11.10;99.90;;;11.46;100.00;97888.81;4994985;28;20522;-80
2020/12/22 04:10:19;;;;;;;4.53;0.70;;;11.00;99.90;;;11.48;100.00;97889.44;4996714;28;20483;-81
2020/12/22 04:12:47;;;;;;;0.80;0.70;;;11.10;99.90;;;11.48;100.00;97889.44;4995509;28;20870;-80
2020/12/22 04:15:14;;;;;;;0.70;0.67;;;11.10;99.90;;;11.49;100.00;97895.44;4997106;28;20467;-81
2020/12/22 04:17:42;;;;;;;0.90;0.80;;;11.10;99.90;;;11.48;100.00;97894.66;4996602;28;20462;-80
2020/12/22 04:20:10;;;;;;;2.30;0.60;;;11.10;99.90;;;11.50;100.00;97907.53;4995049;28;20872;-81
2020/12/22 04:22:38;;;;;;;0.80;0.70;;;11.00;99.90;;;11.52;100.00;97908.97;4995528;28;20464;-81
2020/12/22 04:25:06;;;;;;;1.20;0.70;;;11.10;99.90;;;11.53;100.00;97912.38;4995839;28;20483;-80
2020/12/22 04:27:34;;;;;;;0.80;0.80;;;11.10;99.90;;;11.56;100.00;97914.59;4996030;28;20470;-80
2020/12/22 04:30:01;;;;;;;1.40;0.60;;;11.20;99.90;;;11.56;100.00;97912.81;4993642;28;20499;-81
2020/12/22 04:32:29;;;;;;;0.80;0.70;;;11.20;99.90;;;11.55;100.00;97916.44;4999186;28;20458;-80
2020/12/22 04:34:56;;;;;;;2.40;0.70;;;11.10;99.90;;;11.57;100.00;97914.44;4997027;28;20495;-80
2020/12/22 04:37:24;;;;;;;0.80;0.70;;;11.10;99.90;;;11.61;100.00;97904.38;4995932;28;20468;-80
2020/12/22 04:39:52;;;;;;;0.70;0.60;;;11.30;99.90;;;11.59;100.00;97916.88;4996408;28;20952;-80
2020/12/22 04:42:21;;;;;;;0.80;0.60;;;11.10;99.90;;;11.63;100.00;97905.78;4996386;28;20956;-80
2020/12/22 04:44:50;;;;;;;0.80;0.73;;;11.20;99.90;;;11.66;100.00;97922.13;4994734;28;20470;-81
2020/12/22 04:47:18;;;;;;;0.90;0.70;;;11.20;99.90;;;11.66;100.00;97924.75;4995755;28;20469;-81
2020/12/22 04:49:53;;;;;;;0.80;0.70;;;11.20;99.90;;;11.69;100.00;97932.19;4995529;28;20466;-81
2020/12/22 04:52:23;;;;;;;0.70;0.60;;;11.20;99.90;;;11.70;100.00;97931.22;4994975;28;20450;-81
2020/12/22 04:54:51;;;;;;;0.80;0.70;;;11.20;99.90;;;11.70;100.00;97939.06;4997076;28;20490;-80
2020/12/22 04:57:27;;;;;;;0.90;0.70;;;11.30;99.90;;;11.70;100.00;97931.97;4996106;28;20454;-80
2020/12/22 04:59:54;;;;;;;0.70;0.60;;;11.30;99.90;;;11.72;100.00;97937.06;4997259;28;20509;-81
2020/12/22 05:02:26;;;;;;;1.63;0.70;;;11.30;99.90;;;11.71;100.00;97935.44;4995265;28;20443;-81
2020/12/22 05:04:54;;;;;;;0.80;0.70;;;11.30;99.90;;;11.74;100.00;97940.28;4995074;28;20456;-81
2020/12/22 05:07:21;;;;;;;156.70;73.37;;;11.30;99.90;;;11.73;100.00;97949.97;4994856;28;20467;-81
2020/12/22 05:09:49;;;;;;;4.93;2.83;;;11.30;99.90;;;11.73;100.00;97955.19;4996219;28;20493;-81
2020/12/22 05:12:17;;;;;;;1.43;1.00;;;11.30;99.90;;;11.77;100.00;97950.38;4997240;28;20443;-81
2020/12/22 05:14:45;;;;;;;1.53;0.80;;;11.40;99.90;;;11.76;100.00;97946.97;4998344;28;20560;-81
2020/12/22 05:17:14;;;;;;;0.80;0.70;;;11.40;99.90;;;11.78;100.00;97941.53;4998288;28;20816;-81
2020/12/22 05:19:43;;;;;;;2.30;0.70;;;11.40;99.90;;;11.79;100.00;97945.75;4997971;28;20502;-78
2020/12/22 05:22:12;;;;;;;5.60;2.80;;;11.40;99.90;;;11.79;100.00;97935.28;4999360;28;20857;-81
2020/12/22 05:24:40;;;;;;;0.80;0.60;;;11.40;99.90;;;11.80;100.00;97939.53;4997944;28;20982;-80
2020/12/22 05:27:09;;;;;;;0.80;0.70;;;11.40;99.90;;;11.79;100.00;97930.03;4998552;28;20513;-81
2020/12/22 05:29:37;;;;;;;0.70;0.60;;;11.40;99.90;;;11.80;100.00;97937.69;4997501;28;20479;-80
2020/12/22 05:32:05;;;;;;;0.70;0.70;;;11.40;99.90;;;11.78;100.00;97946.75;4998223;28;20458;-80
2020/12/22 05:34:32;;;;;;;3.93;0.70;;;11.30;99.90;;;11.81;100.00;97941.13;4998957;28;20493;-80
2020/12/22 05:37:00;;;;;;;1.13;0.90;;;11.40;99.90;;;11.83;100.00;97939.13;4999481;28;20936;-80
2020/12/22 05:39:28;;;;;;;0.70;0.67;;;11.40;99.90;;;11.84;100.00;97933.69;4999704;28;20435;-80
2020/12/22 05:41:55;;;;;;;62.80;34.87;;;11.40;99.90;;;11.87;100.00;97938.50;4999988;28;20475;-80
2020/12/22 05:44:26;;;;;;;0.90;0.70;;;11.50;99.90;;;11.89;100.00;97948.81;4998950;28;20460;-80
2020/12/22 05:47:00;;;;;;;0.77;0.67;;;11.50;99.90;;;11.88;100.00;97947.19;4999789;28;20478;-80
2020/12/22 05:49:27;;;;;;;2.13;0.93;;;11.50;99.90;;;11.90;100.00;97932.09;4998713;28;20956;-80
2020/12/22 05:51:56;;;;;;;0.80;0.70;;;11.50;99.90;;;11.88;100.00;97942.75;5000154;28;20493;-80
2020/12/22 05:54:26;;;;;;;0.80;0.70;;;11.40;99.90;;;11.88;100.00;97952.44;4997527;28;20554;-80
2020/12/22 05:57:06;;;;;;;2.03;0.70;;;11.40;99.90;;;11.90;100.00;97950.44;4998187;28;20463;-80
2020/12/22 05:59:33;;;;;;;0.90;0.70;;;11.50;99.90;;;11.92;100.00;97958.91;4998309;28;20452;-80
2020/12/22 06:02:01;;;;;;;0.90;0.70;;;11.50;99.90;;;11.95;100.00;97955.88;4998213;28;20510;-80
2020/12/22 06:04:30;;;;;;;2.03;0.70;;;11.60;99.90;;;11.96;100.00;97949.63;4997901;28;20447;-80
2020/12/22 06:06:59;;;;;;;1.00;0.73;;;11.60;99.90;;;11.92;100.00;97953.66;4998309;28;20952;-80
2020/12/22 06:09:28;;;;;;;0.80;0.70;;;11.50;99.90;;;11.92;100.00;97957.09;4999009;28;20991;-80
2020/12/22 06:12:02;;;;;;;0.80;0.70;;;11.50;99.90;;;11.92;100.00;97964.13;4997981;28;20443;-80
2020/12/22 06:14:32;;;;;;;1.00;0.70;;;11.50;99.90;;;11.95;100.00;97968.97;4999011;28;20570;-80
2020/12/22 06:17:10;;;;;;;1.00;0.70;;;11.60;99.90;;;11.95;100.00;97963.75;4997935;28;20447;-80
2020/12/22 06:19:39;;;;;;;0.90;0.80;;;11.50;99.90;;;11.96;100.00;97973.22;4998788;28;20442;-80
2020/12/22 06:22:10;;;;;;;1.13;0.80;;;11.50;99.90;;;11.98;100.00;97973.81;5001531;28;20446;-81
2020/12/22 06:24:38;;;;;;;0.80;0.70;;;11.60;99.90;;;11.93;100.00;97982.28;5004331;28;20874;-80
2020/12/22 06:27:08;;;;;;;1.57;0.80;;;11.50;99.90;;;11.93;100.00;97982.28;5001158;28;20456;-80
2020/12/22 06:29:40;;;;;;;0.80;0.80;;;11.50;99.90;;;11.96;100.00;97991.56;5001697;28;20475;-81
2020/12/22 06:32:24;;;;;;;0.80;0.77;;;11.50;99.90;;;11.96;100.00;97992.38;5001744;28;20821;-80
2020/12/22 06:34:53;;;;;;;1.00;0.80;;;11.60;99.90;;;11.96;100.00;97986.31;5000701;28;20526;-80
2020/12/22 06:37:40;;;;;;;0.80;0.80;;;11.50;99.90;;;11.97;100.00;97985.34;5001443;28;20945;-80
2020/12/22 06:40:09;;;;;;;0.70;0.70;;;11.50;99.90;;;11.96;100.00;97984.50;5000274;28;20459;-80
2020/12/22 06:42:47;;;;;;;0.77;0.70;;;11.50;99.90;;;11.95;100.00;97982.91;5001856;28;20454;-80
2020/12/22 06:45:27;;;;;;;0.70;0.63;;;11.40;99.90;;;11.94;100.00;97978.66;5001308;28;20448;-80
2020/12/22 06:48:00;;;;;;;3.23;0.83;;;11.40;99.90;;;11.94;100.00;97981.28;5000893;28;20519;-80
2020/12/22 06:50:43;;;;;;;1.00;0.70;;;11.40;99.90;;;11.97;100.00;97980.91;5000768;28;20443;-80
2020/12/22 06:53:34;;;;;;;0.80;0.70;;;11.50;99.90;;;12.00;100.00;97990.16;5001068;28;20525;-81
2020/12/22 06:56:02;;;;;;;0.80;0.70;;;11.50;99.90;;;12.01;100.00;97991.78;5000908;28;20522;-81
2020/12/22 06:58:40;;;;;;;4.93;0.87;;;11.60;99.90;;;12.03;100.00;97987.16;5001629;28;20579;-79
2020/12/22 07:01:31;;;;;;;1.10;0.87;;;11.60;99.90;;;12.02;100.00;97986.34;4999925;28;20459;-80
2020/12/22 07:04:20;;;;;;;1.47;0.80;;;11.60;99.90;;;12.04;100.00;97986.16;5000319;28;20451;-80
2020/12/22 07:06:57;;;;;;;0.70;0.60;;;11.60;99.90;;;12.01;100.00;97989.97;5001153;28;20471;-80
2020/12/22 07:09:29;;;;;;;0.80;0.80;;;11.60;99.90;;;12.04;100.00;97989.56;5002358;28;20843;-80
2020/12/22 07:12:11;;;;;;;1.00;0.80;;;11.60;99.90;;;12.06;100.00;97997.25;5000223;28;20449;-80
2020/12/22 07:14:41;;;;;;;2.20;0.70;;;11.70;99.90;;;12.05;100.00;97998.25;5001657;28;20491;-80
2020/12/22 07:17:13;;;;;;;0.80;0.70;;;11.70;99.90;;;12.03;100.00;98008.13;5001523;28;20474;-80
2020/12/22 07:19:46;;;;;;;1.57;0.70;;;11.50;99.90;;;12.06;100.00;98013.78;5001917;28;20970;-80
2020/12/22 07:22:16;;;;;;;0.90;0.80;;;11.70;99.90;;;12.06;100.00;98008.53;5001242;28;20831;-80
2020/12/22 07:24:45;;;;;;;1.43;0.80;;;11.70;99.90;;;12.07;100.00;98007.53;5001033;28;20964;-80
2020/12/22 07:27:13;;;;;;;0.80;0.70;;;11.70;99.90;;;12.10;100.00;98015.00;4999322;28;20960;-80
2020/12/22 07:29:42;;;;;;;0.83;0.70;;;11.70;99.90;;;12.10;100.00;98009.75;4999744;28;20513;-80
2020/12/22 07:32:11;;;;;;;0.70;0.60;;;11.70;99.90;;;12.09;100.00;98018.63;4997522;28;20459;-81
2020/12/22 07:34:39;;;;;;;0.80;0.70;;;11.70;99.90;;;12.13;100.00;98020.84;4998771;28;20528;-80
2020/12/22 07:37:11;;;;;;;1.30;0.73;;;11.70;99.90;;;12.14;100.00;98025.91;4999313;28;20460;-80
2020/12/22 07:39:40;;;;;;;0.80;0.80;;;11.70;99.90;;;12.15;100.00;98022.25;5000533;28;20925;-81
2020/12/22 07:42:13;;;;;;;0.90;0.70;;;11.70;99.90;;;12.08;100.00;98030.09;5000917;28;20823;-80
2020/12/22 07:44:41;;;;;;;0.80;0.70;;;11.60;99.90;;;12.13;100.00;98039.19;5000334;28;20448;-80
2020/12/22 07:47:10;;;;;;;0.70;0.70;;;11.70;99.90;;;12.15;100.00;98035.38;5000342;28;20451;-80
2020/12/22 07:49:39;;;;;;;8.27;0.90;;;11.80;99.90;;;12.16;100.00;98038.81;4999422;28;20454;-80
2020/12/22 07:52:16;;;;;;;0.80;0.80;;;11.70;99.90;;;12.16;100.00;98052.72;5000136;28;21059;-80
2020/12/22 07:54:44;;;;;;;1.17;0.80;;;11.70;99.90;;;12.10;100.00;98051.69;5001781;28;20578;-80
2020/12/22 07:57:13;;;;;;;0.80;0.70;;;11.60;99.90;;;12.17;100.00;98049.09;4999812;28;20454;-81
2020/12/22 07:59:44;;;;;;;1.83;0.70;;;11.70;99.90;;;12.18;100.00;98042.88;5000551;28;20974;-80
2020/12/22 08:02:11;;;;;;;0.93;0.83;;;11.80;99.90;;;12.18;100.00;98048.09;5000158;28;20451;-81
2020/12/22 08:04:39;;;;;;;2.40;0.73;;;11.80;99.90;;;12.19;100.00;98049.69;4999584;28;20439;-81
2020/12/22 08:07:07;;;;;;;1.40;0.70;;;11.80;99.90;;;12.23;100.00;98048.31;4999905;28;20493;-80
2020/12/22 08:09:37;;;;;;;1.00;0.80;;;11.80;99.90;;;12.19;100.00;98048.88;5002087;28;21078;-80
2020/12/22 08:12:06;;;;;;;0.90;0.70;;;11.80;99.90;;;12.21;100.00;98047.72;4998461;28;20440;-80
2020/12/22 08:14:39;;;;;;;0.80;0.70;;;11.80;99.90;;;12.22;100.00;98049.31;4999856;28;20496;-80
2020/12/22 08:17:14;;;;;;;0.80;0.77;;;11.80;99.90;;;12.24;100.00;98059.59;4998913;28;20452;-80
2020/12/22 08:19:43;;;;;;;0.70;0.67;;;11.80;99.90;;;12.25;100.00;98061.22;4999050;28;20457;-80
2020/12/22 08:22:14;;;;;;;1.00;0.80;;;11.80;99.90;;;12.26;100.00;98063.63;5000066;28;20464;-80
2020/12/22 08:24:44;;;;;;;0.87;0.70;;;11.90;99.90;;;12.27;100.00;98056.59;5000515;28;20478;-80
2020/12/22 08:27:13;;;;;;;0.90;0.70;;;11.80;99.90;;;12.29;100.00;98073.72;4997565;28;20531;-80
2020/12/22 08:29:42;;;;;;;0.80;0.70;;;11.90;99.90;;;12.29;100.00;98076.34;4999028;28;20484;-80
2020/12/22 08:32:12;;;;;;;0.80;0.70;;;11.80;99.90;;;12.33;100.00;98067.09;4999442;28;20456;-80
2020/12/22 08:34:45;;;;;;;0.80;0.70;;;11.90;99.90;;;12.35;100.00;98059.84;4998011;28;20491;-80
2020/12/22 08:37:13;;;;;;;0.83;0.77;;;11.90;99.90;;;12.37;100.00;98070.94;4998393;28;20937;-80
2020/12/22 08:39:44;;;;;;;0.90;0.77;;;12.00;99.90;;;12.38;100.00;98074.38;4997850;28;20447;-80
2020/12/22 08:42:12;;;;;;;0.80;0.70;;;12.00;99.90;;;12.41;100.00;98077.41;4997622;28;20481;-80
2020/12/22 08:44:49;;;;;;;0.80;0.70;;;12.00;99.90;;;12.40;100.00;98080.22;4998571;28;20959;-80
2020/12/22 08:47:19;;;;;;;0.97;0.73;;;12.00;99.90;;;12.43;100.00;98082.44;4999966;28;20467;-80
2020/12/22 08:49:47;;;;;;;0.90;0.80;;;12.00;99.90;;;12.43;100.00;98078.00;4997586;28;20827;-80
2020/12/22 08:52:16;;;;;;;1.33;0.80;;;12.10;99.90;;;12.43;100.00;98077.19;4997520;28;20810;-80
2020/12/22 08:54:47;;;;;;;2.73;0.87;;;12.10;99.90;;;12.43;100.00;98083.25;4998365;28;20505;-80
2020/12/22 08:57:17;;;;;;;2.40;0.70;;;12.00;99.90;;;12.45;100.00;98089.13;4998708;28;20462;-80
2020/12/22 08:59:46;;;;;;;1.37;0.80;;;12.10;99.90;;;12.46;100.00;98088.09;4998570;28;20492;-80
2020/12/22 09:02:29;;;;;;;1.00;0.80;;;12.10;99.90;;;12.47;100.00;98089.72;4997727;28;20502;-81
2020/12/22 09:04:57;;;;;;;1.40;0.93;;;12.10;99.90;;;12.48;100.00;98088.72;4998462;28;20457;-80
2020/12/22 09:07:26;;;;;;;2.07;0.73;;;12.10;99.90;;;12.50;100.00;98102.44;4998041;28;20451;-80
2020/12/22 09:09:55;;;;;;;0.97;0.70;;;12.10;99.90;;;12.49;100.00;98095.59;5000262;28;20467;-80
2020/12/22 09:12:28;;;;;;;1.00;0.80;;;12.10;99.90;;;12.52;100.00;98105.69;4997494;28;20578;-80
2020/12/22 09:14:58;;;;;;;0.90;0.77;;;12.10;99.90;;;12.54;100.00;98111.53;4999114;28;20501;-80
2020/12/22 09:17:31;;;;;;;0.80;0.70;;;12.10;99.90;;;12.55;100.00;98102.66;4998189;28;20505;-80
2020/12/22 09:19:59;;;;;;;1.37;0.70;;;12.20;99.90;;;12.53;100.00;98109.91;4999009;28;20948;-80
2020/12/22 09:22:30;;;;;;;0.80;0.70;;;12.10;99.90;;;12.55;100.00;98115.78;4998669;28;20471;-81
2020/12/22 09:25:00;;;;;;;1.20;0.80;;;12.10;99.90;;;12.56;100.00;98113.97;4997454;28;20452;-80
2020/12/22 09:27:29;;;;;;;0.80;0.70;;;12.20;99.90;;;12.57;100.00;98116.38;4998088;28;21180;-80
2020/12/22 09:29:58;;;;;;;2.13;0.80;;;12.20;99.90;;;12.60;100.00;98116.00;4998009;28;20504;-80
2020/12/22 09:32:28;;;;;;;0.80;0.80;;;12.20;99.90;;;12.60;100.00;98120.41;4997855;28;20458;-80
2020/12/22 09:34:55;;;;;;;2.43;0.70;;;12.20;99.90;;;12.63;100.00;98127.09;4997073;28;20503;-81
2020/12/22 09:37:26;;;;;;;0.80;0.70;;;12.20;99.90;;;12.65;100.00;98130.34;4998145;28;20448;-80
2020/12/22 09:39:54;;;;;;;0.90;0.70;;;12.30;99.90;;;12.59;100.00;98137.19;4998170;28;20451;-81
2020/12/22 09:42:24;;;;;;;0.70;0.60;;;12.10;99.90;;;12.58;100.00;98136.38;4998817;28;20908;-80
2020/12/22 09:44:52;;;;;;;1.00;0.80;;;12.20;99.90;;;12.58;100.00;98136.38;4998389;28;20817;-80
2020/12/22 09:47:22;;;;;;;1.03;0.80;;;12.10;99.90;;;12.60;100.00;98142.22;4997930;28;20857;-80
2020/12/22 09:49:50;;;;;;;0.90;0.70;;;12.10;99.90;;;12.62;100.00;98147.28;4999655;28;20525;-80
2020/12/22 09:52:17;;;;;;;0.80;0.70;;;12.10;99.90;;;12.63;100.00;98152.31;4997412;28;20444;-80
2020/12/22 09:54:46;;;;;;;0.90;0.70;;;12.20;99.90;;;12.64;100.00;98142.63;4998562;28;20558;-80
2020/12/22 09:57:13;;;;;;;1.10;0.80;;;12.20;99.90;;;12.60;100.00;98152.72;5003627;28;20447;-80
2020/12/22 09:59:42;;;;;;;0.77;0.70;;;12.20;99.90;;;12.61;100.00;98154.34;5002091;28;20451;-80
2020/12/22 10:02:09;;;;;;;0.80;0.70;;;12.10;99.90;;;12.63;100.00;98146.28;5001697;28;20443;-80
2020/12/22 10:04:39;;;;;;;0.87;0.73;;;12.20;99.90;;;12.67;100.00;98152.72;5002492;28;20447;-81
2020/12/22 10:07:07;;;;;;;1.10;0.80;;;12.20;99.90;;;12.69;100.00;98142.06;5001244;28;21169;-80
2020/12/22 10:09:34;;;;;;;1.00;0.70;;;12.20;99.90;;;12.72;100.00;98144.28;5001292;28;20976;-80
2020/12/22 10:12:03;;;;;;;1.00;0.80;;;12.30;99.90;;;12.73;100.00;98146.72;5000177;28;20448;-80
2020/12/22 10:14:32;;;;;;;1.43;0.80;;;12.30;99.90;;;12.75;100.00;98149.13;5001405;28;20506;-81
2020/12/22 10:17:00;;;;;;;0.80;0.73;;;12.30;99.90;;;12.73;100.00;98149.34;5002068;28;20456;-80
2020/12/22 10:19:28;;;;;;;1.73;0.70;;;12.30;99.90;;;12.75;100.00;98151.75;5002099;28;20955;-80
2020/12/22 10:21:55;;;;;;;1.10;0.90;;;12.30;99.90;;;12.77;100.00;98147.13;5002469;28;20452;-80
2020/12/22 10:24:35;;;;;;;0.80;0.67;;;12.40;99.90;;;12.79;100.00;98139.84;5001922;28;20438;-80